Time;durP1;ratioP1;P1;durP2;ratioP2;P2;SDS_P1;SDS_P2;PMS_P1;PMS_P2;Temp;Humidity;BMP_temperature;BMP_pressure;BME280_temperature;BME280_humidity;BME280_pressure;Samples;Min_cycle;Max_cycle;Signal;HPM_P1;HPM_P2
2021/08/01 00:00:17;;;;;;;2.05;0.55;;;;;;;17.57;75.66;97240.25;6156058;23;20362;-71
2021/08/01 00:02:42;;;;;;;0.47;0.47;;;;;;;17.58;75.64;97241.88;6163234;23;20068;-70
2021/08/01 00:05:10;;;;;;;0.75;0.63;;;;;;;17.59;75.79;97233.22;6171628;23;20051;-71
2021/08/01 00:07:37;;;;;;;0.65;0.65;;;;;;;17.61;75.58;97232.94;6156542;23;20009;-70
2021/08/01 00:10:05;;;;;;;0.50;0.50;;;;;;;17.66;75.53;97243.88;6155984;23;20447;-70
2021/08/01 00:12:31;;;;;;;0.40;0.38;;;;;;;17.73;75.36;97238.69;6155934;23;20021;-70
2021/08/01 00:14:57;;;;;;;0.65;0.65;;;;;;;17.78;75.15;97243.25;6155799;23;20569;-70
2021/08/01 00:17:23;;;;;;;0.95;0.32;;;;;;;17.82;75.14;97247.84;6155611;23;20469;-70
2021/08/01 00:19:49;;;;;;;0.73;0.30;;;;;;;17.88;75.09;97247.72;6156225;23;20010;-69
2021/08/01 00:22:15;;;;;;;0.75;0.70;;;;;;;17.95;74.77;97246.13;6154280;23;20044;-70
2021/08/01 00:24:41;;;;;;;0.40;0.40;;;;;;;18.00;74.92;97261.84;6155386;23;20063;-69
2021/08/01 00:27:07;;;;;;;0.98;0.68;;;;;;;18.07;74.69;97253.84;6155522;23;20450;-68
2021/08/01 00:29:33;;;;;;;0.85;0.85;;;;;;;18.13;74.65;97269.22;6155431;23;20438;-69
2021/08/01 00:32:00;;;;;;;0.60;0.47;;;;;;;18.18;74.52;97255.19;6155457;23;20016;-71
2021/08/01 00:34:27;;;;;;;0.80;0.57;;;;;;;18.21;74.32;97264.81;6155333;23;20206;-70
2021/08/01 00:36:53;;;;;;;0.98;0.60;;;;;;;18.25;74.42;97265.00;6155499;23;20404;-70
2021/08/01 00:39:19;;;;;;;0.35;0.35;;;;;;;18.28;74.43;97264.38;6153942;23;20469;-68
2021/08/01 00:41:45;;;;;;;0.32;0.32;;;;;;;18.30;74.43;97268.47;6152806;23;20010;-69
2021/08/01 00:44:11;;;;;;;0.35;0.35;;;;;;;18.29;74.50;97268.78;6155552;23;20013;-71
2021/08/01 00:46:39;;;;;;;0.70;0.70;;;;;;;18.33;74.37;97270.59;6155600;23;20030;-70
2021/08/01 00:49:05;;;;;;;0.22;0.22;;;;;;;18.35;74.42;97281.38;6155770;23;20014;-70
2021/08/01 00:51:31;;;;;;;0.82;0.80;;;;;;;18.36;74.37;97278.28;6155807;23;20331;-69
2021/08/01 00:53:59;;;;;;;0.15;0.15;;;;;;;18.37;74.25;97285.47;6155124;23;20088;-69
2021/08/01 00:56:25;;;;;;;1.23;1.15;;;;;;;18.39;74.50;97287.94;6155302;23;20036;-69
2021/08/01 00:58:50;;;;;;;0.50;0.47;;;;;;;18.38;74.74;97297.41;6155267;23;20013;-68
2021/08/01 01:01:22;;;;;;;0.45;0.35;;;;;;;18.36;74.52;97283.03;6155059;23;20371;-69
2021/08/01 01:04:08;;;;;;;1.40;1.30;;;;;;;18.37;74.69;97287.44;6155135;23;20052;-68
2021/08/01 01:06:46;;;;;;;0.68;0.68;;;;;;;18.39;74.58;97304.63;6155604;23;20009;-69
2021/08/01 01:09:21;;;;;;;0.45;0.45;;;;;;;18.44;74.52;97295.31;6153523;23;20102;-71
2021/08/01 01:11:48;;;;;;;0.50;0.50;;;;;;;18.46;74.26;97301.34;6154702;23;20132;-71
2021/08/01 01:14:21;;;;;;;1.42;0.70;;;;;;;18.52;74.54;97305.59;6154844;23;20101;-70
2021/08/01 01:16:54;;;;;;;0.52;0.52;;;;;;;18.53;74.36;97308.06;6155084;23;20324;-70
2021/08/01 01:19:57;;;;;;;0.90;0.80;;;;;;;18.54;74.05;97306.91;6155301;23;20013;-71
2021/08/01 01:23:18;;;;;;;0.52;0.38;;;;;;;18.59;74.24;97307.91;6155253;23;20036;-71
2021/08/01 01:26:00;;;;;;;1.08;0.85;;;;;;;18.62;74.12;97318.38;6118040;23;20014;-69
2021/08/01 01:28:39;;;;;;;0.20;0.20;;;;;;;18.62;74.38;97321.16;6154813;23;20485;-70
2021/08/01 01:31:09;;;;;;;0.25;0.25;;;;;;;18.66;74.25;97324.94;6154875;23;20017;-71
2021/08/01 01:33:36;;;;;;;0.32;0.32;;;;;;;18.72;74.15;97316.09;6154683;23;20068;-70
2021/08/01 01:36:06;;;;;;;0.73;0.73;;;;;;;18.80;74.10;97314.50;6154926;23;20025;-70
2021/08/01 01:38:33;;;;;;;0.20;0.20;;;;;;;18.89;74.06;97323.69;6155057;23;20450;-71
2021/08/01 01:41:00;;;;;;;0.88;0.65;;;;;;;18.95;73.72;97318.78;6154028;23;20032;-70
2021/08/01 01:43:27;;;;;;;1.58;0.30;;;;;;;18.98;73.84;97328.44;6153110;23;20394;-71
2021/08/01 01:45:55;;;;;;;1.10;0.47;;;;;;;19.00;73.78;97324.16;6154612;23;20009;-71
2021/08/01 01:48:21;;;;;;;0.98;0.73;;;;;;;19.04;73.74;97324.34;6154858;23;20089;-71
2021/08/01 01:50:48;;;;;;;0.30;0.30;;;;;;;19.06;73.67;97328.41;6154619;23;20052;-70
2021/08/01 01:53:15;;;;;;;1.55;0.57;;;;;;;19.10;73.65;97325.81;6154345;23;20148;-72
2021/08/01 01:55:42;;;;;;;0.25;0.20;;;;;;;19.09;73.57;97324.19;6155310;23;20013;-72
2021/08/01 01:58:11;;;;;;;0.13;0.13;;;;;;;19.17;73.62;97323.38;6155036;23;20014;-69
2021/08/01 02:00:38;;;;;;;0.40;0.40;;;;;;;19.34;73.23;97324.50;6154967;23;20017;-68
2021/08/01 02:03:04;;;;;;;0.40;0.40;;;;;;;19.42;73.16;97321.72;6154906;23;20013;-69
2021/08/01 02:05:30;;;;;;;0.20;0.20;;;;;;;19.50;72.89;97333.97;6155112;23;20009;-70
2021/08/01 02:07:55;;;;;;;0.47;0.47;;;;;;;19.68;72.63;97325.59;6160210;23;20068;-70
2021/08/01 02:10:34;;;;;;;0.17;0.17;;;;;;;20.13;71.63;97325.16;6174340;23;20013;-70
2021/08/01 02:13:05;;;;;;;0.30;0.30;;;;;;;20.96;69.29;97325.69;6159463;23;20018;-71
2021/08/01 02:15:43;;;;;;;3.10;0.30;;;;;;;21.20;68.96;97332.56;6155169;23;20104;-70
2021/08/01 02:18:17;;;;;;;0.30;0.30;;;;;;;21.03;69.52;97323.16;6155288;23;20010;-69
2021/08/01 02:20:45;;;;;;;0.30;0.30;;;;;;;20.80;70.54;97336.63;6155310;23;20009;-71
2021/08/01 02:23:23;;;;;;;1.05;0.73;;;;;;;20.55;71.38;97341.19;6154957;23;20016;-74
2021/08/01 02:25:50;;;;;;;0.77;0.77;;;;;;;20.30;71.83;97341.81;6154498;23;20009;-69
2021/08/01 02:28:19;;;;;;;1.08;0.63;;;;;;;20.12;72.67;97337.44;6154775;23;20093;-72
2021/08/01 02:30:46;;;;;;;2.42;0.50;;;;;;;20.05;72.82;97340.75;6154740;23;20355;-71
2021/08/01 02:33:13;;;;;;;1.02;0.50;;;;;;;19.99;73.12;97336.50;6155369;23;20147;-71
2021/08/01 02:35:39;;;;;;;0.40;0.40;;;;;;;19.98;72.88;97345.19;6155194;23;20014;-75
2021/08/01 02:38:08;;;;;;;0.38;0.38;;;;;;;19.97;72.79;97349.94;6155123;23;20473;-74
2021/08/01 02:40:39;;;;;;;1.00;0.65;;;;;;;19.94;72.96;97342.25;6154867;23;20021;-77
2021/08/01 02:43:09;;;;;;;0.30;0.30;;;;;;;19.94;72.97;97340.28;6154832;23;20402;-71
2021/08/01 02:45:36;;;;;;;0.63;0.38;;;;;;;20.05;72.45;97345.50;6154675;23;20041;-73
2021/08/01 02:48:04;;;;;;;0.50;0.50;;;;;;;20.13;72.33;97347.44;6154997;23;20048;-72
2021/08/01 02:50:34;;;;;;;0.30;0.30;;;;;;;20.17;72.24;97347.59;6154607;23;20040;-72
2021/08/01 02:53:02;;;;;;;0.13;0.13;;;;;;;20.16;72.56;97351.53;6154336;23;20362;-73
2021/08/01 02:55:31;;;;;;;0.47;0.30;;;;;;;20.14;72.27;97346.31;6154658;23;20296;-72
2021/08/01 02:57:57;;;;;;;0.35;0.35;;;;;;;20.13;72.52;97347.44;6154704;23;20133;-74
2021/08/01 03:00:24;;;;;;;0.28;0.28;;;;;;;20.08;72.45;97344.81;6154556;23;20025;-71
2021/08/01 03:02:51;;;;;;;1.30;1.02;;;;;;;20.05;72.88;97348.28;6154692;23;20452;-69
2021/08/01 03:05:18;;;;;;;0.10;0.10;;;;;;;20.07;72.86;97348.78;6154720;23;20010;-70
2021/08/01 03:07:45;;;;;;;0.52;0.32;;;;;;;20.16;72.59;97341.19;6156008;23;20084;-68
2021/08/01 03:10:15;;;;;;;0.98;0.98;;;;;;;20.26;72.25;97340.84;6155385;23;20017;-68
2021/08/01 03:12:47;;;;;;;0.35;0.35;;;;;;;20.41;71.99;97341.44;6155866;23;20092;-68
2021/08/01 03:15:13;;;;;;;0.80;0.80;;;;;;;20.64;71.42;97348.34;6156528;23;20061;-68
2021/08/01 03:17:39;;;;;;;0.30;0.28;;;;;;;20.76;70.73;97338.44;6156141;23;20013;-68
2021/08/01 03:20:06;;;;;;;0.57;0.57;;;;;;;20.88;70.55;97338.53;6156319;23;20016;-68
2021/08/01 03:22:32;;;;;;;0.68;0.52;;;;;;;20.95;70.71;97335.19;6155877;23;20350;-66
2021/08/01 03:24:58;;;;;;;0.75;0.75;;;;;;;20.86;70.78;97338.06;6156229;23;20423;-70
2021/08/01 03:27:25;;;;;;;0.38;0.38;;;;;;;20.76;71.27;97328.13;6156133;23;20024;-69
2021/08/01 03:29:51;;;;;;;0.10;0.10;;;;;;;20.83;71.25;97336.78;6156156;23;20493;-70
2021/08/01 03:32:17;;;;;;;0.35;0.35;;;;;;;20.90;71.17;97341.81;6155900;23;20020;-69
2021/08/01 03:34:43;;;;;;;1.25;0.82;;;;;;;21.02;70.79;97340.25;6155991;23;20013;-70
2021/08/01 03:37:09;;;;;;;0.38;0.38;;;;;;;21.38;69.70;97336.84;6155829;23;20554;-68
2021/08/01 03:39:35;;;;;;;0.57;0.50;;;;;;;22.15;67.66;97338.38;6156224;23;20435;-68
2021/08/01 03:42:02;;;;;;;0.20;0.20;;;;;;;22.51;66.93;97336.78;6155527;23;20021;-69
2021/08/01 03:44:28;;;;;;;0.55;0.55;;;;;;;22.55;67.11;97340.50;6155726;23;20013;-69
2021/08/01 03:46:55;;;;;;;0.47;0.35;;;;;;;22.41;67.82;97340.88;6155856;23;20085;-68
2021/08/01 03:49:21;;;;;;;0.65;0.45;;;;;;;22.29;67.97;97343.63;6155625;23;20084;-66
2021/08/01 03:51:47;;;;;;;2.80;0.28;;;;;;;22.25;68.64;97343.50;6154122;23;20044;-66
2021/08/01 03:54:12;;;;;;;0.25;0.25;;;;;;;22.11;68.75;97341.03;6155943;23;20009;-68
2021/08/01 03:56:44;;;;;;;0.17;0.17;;;;;;;21.94;69.30;97339.25;6156069;23;20399;-71
2021/08/01 03:59:11;;;;;;;0.22;0.22;;;;;;;21.79;69.73;97331.53;6155923;23;20019;-73
2021/08/01 04:01:38;;;;;;;0.20;0.20;;;;;;;21.80;69.74;97333.97;6155995;23;20017;-73
2021/08/01 04:04:04;;;;;;;0.77;0.77;;;;;;;21.92;69.63;97335.97;6156213;23;20021;-75
2021/08/01 04:06:31;;;;;;;0.25;0.25;;;;;;;22.16;68.77;97334.41;6155907;23;20020;-71
2021/08/01 04:08:56;;;;;;;0.50;0.50;;;;;;;22.51;67.84;97336.78;6155821;23;20020;-70
2021/08/01 04:11:22;;;;;;;0.32;0.32;;;;;;;22.95;66.78;97342.56;6155821;23;20338;-71
2021/08/01 04:13:48;;;;;;;0.47;0.47;;;;;;;23.18;66.68;97342.91;6156733;23;20454;-71
2021/08/01 04:16:14;;;;;;;0.15;0.15;;;;;;;23.26;66.12;97341.13;6169362;23;20004;-71
2021/08/01 04:18:40;;;;;;;0.15;0.15;;;;;;;23.25;66.50;97329.13;6167070;23;20010;-70
2021/08/01 04:25:12;;;;;;;0.15;0.15;;;;;;;23.38;66.25;97343.06;6145825;23;20047;-72
2021/08/01 04:38:26;;;;;;;0.68;0.38;;;;;;;23.65;65.85;97344.25;6148218;23;20027;-70
2021/08/01 04:41:31;;;;;;;0.35;0.35;;;;;;;23.26;66.97;97346.72;6151727;23;20037;-71
2021/08/01 04:44:37;;;;;;;1.02;0.93;;;;;;;23.13;67.84;97356.31;6152177;23;20024;-67
2021/08/01 04:47:42;;;;;;;0.30;0.30;;;;;;;23.49;66.77;97349.00;6154018;23;20037;-69
2021/08/01 04:57:34;;;;;;;0.40;0.40;;;;;;;24.44;64.08;97354.78;6144766;23;20067;-70
2021/08/01 05:07:26;;;;;;;1.45;0.50;;;;;;;25.53;61.58;97358.13;6148398;23;20021;-70
2021/08/01 05:16:40;;;;;;;0.35;0.35;;;;;;;25.84;61.40;97379.63;6149227;23;20028;-72
2021/08/01 05:19:05;;;;;;;0.10;0.10;;;;;;;25.91;61.26;97383.75;6153834;23;20013;-70
2021/08/01 05:21:31;;;;;;;0.47;0.47;;;;;;;25.87;61.69;97387.31;6153370;23;20332;-67
2021/08/01 05:23:57;;;;;;;0.15;0.15;;;;;;;25.90;61.37;97382.97;6153157;23;20401;-70
2021/08/01 05:26:23;;;;;;;0.60;0.60;;;;;;;25.91;61.42;97383.75;6151872;23;20013;-70
2021/08/01 05:28:50;;;;;;;0.28;0.28;;;;;;;25.91;61.82;97401.44;6151253;23;20438;-69
2021/08/01 05:31:16;;;;;;;0.65;0.65;;;;;;;25.80;61.92;97387.19;6150926;23;20009;-66
2021/08/01 05:33:41;;;;;;;0.30;0.22;;;;;;;26.14;60.97;97397.91;6149814;23;20119;-69
2021/08/01 05:36:09;;;;;;;0.22;0.22;;;;;;;26.18;60.80;97388.34;6152356;23;20048;-67
2021/08/01 05:38:36;;;;;;;0.82;0.82;;;;;;;26.04;61.37;97397.34;6151809;23;20013;-67
2021/08/01 05:41:02;;;;;;;1.10;0.50;;;;;;;25.86;61.60;97388.50;6149534;23;20323;-69
2021/08/01 05:43:28;;;;;;;0.65;0.65;;;;;;;25.82;61.85;97401.66;6150195;23;20435;-70
2021/08/01 05:45:54;;;;;;;0.47;0.43;;;;;;;25.90;61.64;97402.66;6152788;23;20016;-67
2021/08/01 05:48:19;;;;;;;0.35;0.35;;;;;;;25.65;62.10;97407.75;6151653;23;20020;-68
2021/08/01 05:50:46;;;;;;;0.35;0.30;;;;;;;25.18;63.07;97398.28;6153722;23;20372;-70
2021/08/01 05:53:11;;;;;;;0.38;0.30;;;;;;;24.61;64.66;97397.72;6152001;23;20071;-68
2021/08/01 05:55:37;;;;;;;0.20;0.20;;;;;;;24.28;65.38;97396.06;6150325;23;20016;-68
2021/08/01 05:58:03;;;;;;;0.20;0.20;;;;;;;24.12;65.63;97394.03;6151319;23;20072;-67
2021/08/01 06:00:29;;;;;;;0.60;0.30;;;;;;;24.19;64.81;97396.22;6151287;23;20021;-67
2021/08/01 06:02:54;;;;;;;0.30;0.30;;;;;;;24.25;64.83;97394.78;6150645;23;20104;-65
2021/08/01 06:05:20;;;;;;;0.22;0.22;;;;;;;24.56;63.99;97395.13;6151985;23;20014;-69
2021/08/01 06:07:46;;;;;;;0.30;0.30;;;;;;;25.23;61.78;97394.38;6153351;23;20013;-71
2021/08/01 06:10:12;;;;;;;0.10;0.10;;;;;;;25.76;60.55;97405.97;6152325;23;20061;-72
2021/08/01 06:12:37;;;;;;;0.10;0.10;;;;;;;26.09;59.94;97406.63;6153388;23;20358;-67
2021/08/01 06:15:04;;;;;;;22.65;0.98;;;;;;;26.36;59.49;97397.09;6151773;23;20056;-65
2021/08/01 06:17:30;;;;;;;0.22;0.22;;;;;;;26.80;58.53;97401.50;6153626;23;20362;-68
2021/08/01 06:19:56;;;;;;;0.47;0.32;;;;;;;26.90;58.31;97389.59;6154775;23;20009;-68
2021/08/01 06:22:23;;;;;;;0.40;0.35;;;;;;;26.84;58.52;97401.56;6167837;23;20128;-68
2021/08/01 06:24:49;;;;;;;0.30;0.30;;;;;;;26.64;59.22;97403.63;6165078;23;20014;-69
2021/08/01 06:27:54;;;;;;;0.30;0.28;;;;;;;26.27;60.03;97404.19;6151265;23;20342;-69
2021/08/01 06:30:20;;;;;;;0.32;0.32;;;;;;;26.22;60.18;97403.28;6153383;23;20507;-68
2021/08/01 06:32:46;;;;;;;0.20;0.20;;;;;;;26.20;60.29;97408.47;6153218;23;20009;-68
2021/08/01 06:35:11;;;;;;;0.45;0.45;;;;;;;26.26;59.98;97405.38;6153297;23;20009;-70
2021/08/01 06:37:37;;;;;;;0.20;0.20;;;;;;;26.36;59.85;97405.56;6153155;23;20010;-70
2021/08/01 06:40:03;;;;;;;0.30;0.30;;;;;;;26.42;59.67;97397.63;6153063;23;20033;-68
2021/08/01 06:42:29;;;;;;;0.20;0.20;;;;;;;26.31;59.98;97390.97;6155243;23;20016;-69
2021/08/01 06:44:54;;;;;;;1.33;1.23;;;;;;;26.31;59.72;97393.78;6155067;23;20006;-73
2021/08/01 06:47:20;;;;;;;0.20;0.20;;;;;;;26.42;59.79;97389.16;6154956;23;20013;-72
2021/08/01 06:49:46;;;;;;;0.80;0.80;;;;;;;26.50;59.63;97393.75;6155507;23;20044;-74
2021/08/01 06:52:11;;;;;;;0.20;0.20;;;;;;;26.56;59.40;97392.25;6155554;23;20407;-76
2021/08/01 06:54:37;;;;;;;0.45;0.45;;;;;;;26.51;59.21;97395.34;6155378;23;20097;-66
2021/08/01 06:57:03;;;;;;;0.10;0.10;;;;;;;26.63;59.07;97382.28;6155513;23;20002;-69
2021/08/01 06:59:29;;;;;;;0.20;0.20;;;;;;;26.71;58.65;97384.06;6155395;23;20017;-72
2021/08/01 07:01:55;;;;;;;0.10;0.10;;;;;;;26.65;58.77;97386.34;6156597;23;20482;-72
2021/08/01 07:04:21;;;;;;;0.43;0.43;;;;;;;26.64;58.93;97387.53;6156487;23;20018;-72
2021/08/01 07:06:47;;;;;;;0.35;0.35;;;;;;;26.55;58.78;97392.63;6157018;23;20152;-69
2021/08/01 07:09:13;;;;;;;2.42;0.63;;;;;;;26.62;58.77;97389.09;6156088;23;20336;-76
2021/08/01 07:11:39;;;;;;;0.30;0.30;;;;;;;26.66;58.61;97395.59;6155847;23;20090;-69
2021/08/01 07:14:04;;;;;;;0.28;0.28;;;;;;;26.69;58.40;97394.88;6156174;23;20049;-70
2021/08/01 07:16:30;;;;;;;0.68;0.45;;;;;;;26.77;58.12;97393.81;6156210;23;20438;-70
2021/08/01 07:18:55;;;;;;;0.20;0.20;;;;;;;26.83;58.04;97399.94;6156266;23;20021;-70
2021/08/01 07:22:01;;;;;;;1.27;0.20;;;;;;;26.88;57.73;97369.47;6155095;23;20440;-69
2021/08/01 07:25:07;;;;;;;0.10;0.10;;;;;;;26.70;58.04;97379.63;6155888;23;20009;-71
2021/08/01 07:38:21;;;;;;;0.20;0.20;;;;;;;26.60;57.85;97372.59;6150503;23;20028;-73
2021/08/01 07:41:27;;;;;;;0.45;0.38;;;;;;;26.53;57.79;97378.09;6155361;23;20013;-72
2021/08/01 07:44:38;;;;;;;0.57;0.20;;;;;;;26.38;58.08;97363.78;6156119;23;20354;-69
2021/08/01 07:47:43;;;;;;;0.10;0.10;;;;;;;26.20;58.67;97371.09;6155905;23;20009;-70
2021/08/01 07:50:49;;;;;;;0.10;0.10;;;;;;;26.07;58.80;97364.81;6155836;23;20018;-69
2021/08/01 07:57:17;;;;;;;0.20;0.20;;;;;;;25.87;58.95;97378.09;6151770;23;20100;-76
2021/08/01 08:00:23;;;;;;;0.30;0.30;;;;;;;25.92;58.81;97374.97;6155830;23;20351;-74
2021/08/01 08:06:51;;;;;;;0.35;0.35;;;;;;;26.29;57.50;97382.09;6150395;23;20059;-65
2021/08/01 08:09:57;;;;;;;0.47;0.22;;;;;;;26.33;57.21;97366.91;6154195;23;20013;-67
2021/08/01 08:13:02;;;;;;;0.38;0.30;;;;;;;26.40;57.21;97360.59;6154784;23;20059;-72
2021/08/01 08:16:08;;;;;;;0.28;0.28;;;;;;;26.30;57.49;97361.22;6152469;23;20509;-73
2021/08/01 08:19:13;;;;;;;1.00;0.90;;;;;;;26.29;57.56;97362.41;6154494;23;20009;-73
2021/08/01 08:22:19;;;;;;;0.17;0.17;;;;;;;26.18;57.57;97365.84;6154444;23;20069;-69
2021/08/01 08:24:45;;;;;;;0.15;0.15;;;;;;;25.96;57.92;97373.03;6150417;23;20105;-71
2021/08/01 08:27:10;;;;;;;0.20;0.20;;;;;;;25.80;58.13;97377.94;6160914;23;20016;-68
2021/08/01 08:29:36;;;;;;;0.35;0.35;;;;;;;25.73;58.40;97370.16;6167262;23;20013;-66
2021/08/01 08:32:02;;;;;;;0.20;0.20;;;;;;;25.68;58.24;97362.03;6154779;23;20005;-78
2021/08/01 08:34:28;;;;;;;0.68;0.43;;;;;;;25.60;58.50;97377.13;6153791;23;20013;-65
2021/08/01 08:37:00;;;;;;;0.30;0.28;;;;;;;25.44;58.69;97378.03;6153706;23;20095;-74
2021/08/01 08:39:26;;;;;;;0.55;0.55;;;;;;;25.28;59.09;97383.66;6153185;23;20669;-66
2021/08/01 08:41:52;;;;;;;0.30;0.30;;;;;;;25.21;59.08;97371.47;6153020;23;20095;-66
2021/08/01 08:44:18;;;;;;;0.25;0.10;;;;;;;25.13;59.20;97371.28;6153726;23;20414;-74
2021/08/01 08:46:44;;;;;;;0.35;0.35;;;;;;;25.08;59.11;97377.19;6153703;23;20020;-72
2021/08/01 08:49:12;;;;;;;0.10;0.10;;;;;;;25.00;58.86;97378.22;6153468;23;20389;-70
2021/08/01 08:51:39;;;;;;;0.10;0.10;;;;;;;24.90;59.12;97390.81;6152848;23;20013;-67
2021/08/01 08:54:38;;;;;;;0.35;0.25;;;;;;;24.92;59.22;97380.00;6152887;23;20056;-71
2021/08/01 08:57:20;;;;;;;0.38;0.20;;;;;;;24.86;59.29;97377.88;6152739;23;20456;-66
2021/08/01 08:59:47;;;;;;;0.17;0.17;;;;;;;24.92;58.77;97384.81;6154100;23;20049;-69
2021/08/01 09:02:14;;;;;;;0.10;0.10;;;;;;;25.05;58.36;97383.53;6154701;23;20017;-69
2021/08/01 09:04:44;;;;;;;0.40;0.40;;;;;;;25.27;57.78;97390.44;6154733;23;20014;-71
2021/08/01 09:07:10;;;;;;;0.30;0.30;;;;;;;25.45;57.29;97388.06;6155006;23;20095;-69
2021/08/01 09:09:36;;;;;;;0.10;0.10;;;;;;;25.57;56.90;97386.28;6153921;23;19997;-69
2021/08/01 09:12:01;;;;;;;0.20;0.20;;;;;;;25.50;57.15;97387.78;6152969;23;20017;-70
2021/08/01 09:14:27;;;;;;;0.40;0.35;;;;;;;25.42;57.49;97380.38;6153694;23;20496;-69
2021/08/01 09:16:53;;;;;;;0.20;0.20;;;;;;;25.27;57.56;97386.84;6150624;23;20088;-68
2021/08/01 09:19:32;;;;;;;0.95;0.50;;;;;;;25.08;58.33;97379.19;6153003;23;20009;-65
2021/08/01 09:22:18;;;;;;;0.55;0.28;;;;;;;24.89;58.59;97369.53;6153378;23;20020;-68
2021/08/01 09:24:46;;;;;;;0.20;0.20;;;;;;;24.72;58.63;97375.50;6153593;23;20085;-67
2021/08/01 09:27:25;;;;;;;0.10;0.10;;;;;;;24.60;58.96;97382.03;6153079;23;20010;-67
2021/08/01 09:29:51;;;;;;;0.10;0.10;;;;;;;24.53;59.02;97393.06;6152237;23;20461;-65
2021/08/01 09:32:17;;;;;;;0.10;0.10;;;;;;;24.47;59.22;97373.69;6151973;23;20016;-67
2021/08/01 09:34:47;;;;;;;0.00;0.00;;;;;;;24.46;59.19;97368.44;6153375;23;20567;-65
2021/08/01 09:37:13;;;;;;;1.65;0.50;;;;;;;24.42;58.97;97375.97;6153183;23;20057;-67
2021/08/01 09:39:43;;;;;;;0.30;0.30;;;;;;;24.39;58.75;97365.47;6151494;23;20001;-66
2021/08/01 09:42:11;;;;;;;0.63;0.43;;;;;;;24.35;58.70;97382.22;6152909;23;20016;-67
2021/08/01 09:44:40;;;;;;;0.30;0.30;;;;;;;24.35;58.75;97384.19;6153766;23;19997;-67
2021/08/01 09:47:07;;;;;;;0.20;0.20;;;;;;;24.40;58.49;97393.16;6153194;23;20060;-66
2021/08/01 09:49:32;;;;;;;2.42;0.47;;;;;;;24.46;58.39;97391.69;6153320;23;20002;-66
2021/08/01 09:52:01;;;;;;;0.17;0.17;;;;;;;24.48;58.05;97392.19;6152806;23;20103;-66
2021/08/01 09:54:45;;;;;;;0.10;0.10;;;;;;;24.56;57.93;97398.78;6153441;23;20470;-66
2021/08/01 09:57:15;;;;;;;;;;;;;;;24.60;57.49;97384.84;6153961;23;20021;-65
2021/08/01 09:59:41;;;;;;;0.52;0.52;;;;;;;24.61;57.25;97406.13;6153211;23;19916;-66
2021/08/01 10:02:08;;;;;;;0.20;0.20;;;;;;;24.69;57.39;97404.31;6151573;23;20513;-65
2021/08/01 10:04:37;;;;;;;0.60;0.60;;;;;;;24.75;57.01;97400.88;6153225;23;20437;-66
2021/08/01 10:07:16;;;;;;;0.10;0.10;;;;;;;24.83;56.88;97413.09;6152196;23;20009;-65
2021/08/01 10:09:44;;;;;;;0.10;0.10;;;;;;;24.88;56.84;97407.22;6153653;23;20472;-67
2021/08/01 10:12:11;;;;;;;0.10;0.10;;;;;;;24.95;56.79;97412.16;6152974;23;20084;-67
2021/08/01 10:14:38;;;;;;;0.22;0.22;;;;;;;25.00;56.62;97409.09;6153341;23;20013;-69
2021/08/01 10:17:05;;;;;;;1.23;0.40;;;;;;;25.04;56.53;97409.97;6153399;23;20009;-67
2021/08/01 10:19:31;;;;;;;0.50;0.50;;;;;;;25.10;56.04;97414.16;6153402;23;20129;-66
2021/08/01 10:21:59;;;;;;;2.00;0.38;;;;;;;25.22;55.90;97409.56;6153036;23;20089;-67
2021/08/01 10:24:38;;;;;;;0.20;0.20;;;;;;;25.28;55.82;97411.75;6153067;23;20017;-67
2021/08/01 10:27:09;;;;;;;0.20;0.20;;;;;;;25.32;55.44;97415.50;6153275;23;20010;-66
2021/08/01 10:29:51;;;;;;;0.45;0.43;;;;;;;25.32;55.78;97414.66;6153110;23;20006;-66
2021/08/01 10:32:20;;;;;;;0.35;0.35;;;;;;;25.41;55.35;97418.09;6154657;23;20578;-69
2021/08/01 10:34:51;;;;;;;0.40;0.35;;;;;;;25.55;55.17;97405.53;6168362;23;20024;-65
2021/08/01 10:37:35;;;;;;;0.43;0.43;;;;;;;25.67;54.93;97408.19;6162873;23;20457;-68
2021/08/01 10:40:08;;;;;;;1.17;0.80;;;;;;;25.96;54.05;97409.59;6153279;23;20080;-69
2021/08/01 10:42:37;;;;;;;0.30;0.30;;;;;;;26.29;53.62;97398.97;6152825;23;20485;-66
2021/08/01 10:45:05;;;;;;;0.43;0.40;;;;;;;26.51;53.32;97392.53;6153557;23;20108;-66
2021/08/01 10:47:33;;;;;;;0.30;0.10;;;;;;;26.53;53.31;97393.00;6153587;23;20347;-67
2021/08/01 10:50:05;;;;;;;0.20;0.20;;;;;;;26.47;53.64;97399.31;6153279;23;20009;-69
2021/08/01 10:52:35;;;;;;;0.30;0.30;;;;;;;26.40;53.54;97394.38;6153266;23;20025;-66
2021/08/01 10:55:06;;;;;;;0.15;0.15;;;;;;;26.43;53.63;97393.63;6153117;23;20009;-70
2021/08/01 10:57:33;;;;;;;1.55;0.50;;;;;;;26.49;53.31;97403.38;6152100;23;20462;-67
2021/08/01 11:00:07;;;;;;;0.32;0.32;;;;;;;26.55;53.31;97401.06;6153018;23;20017;-68
2021/08/01 11:02:34;;;;;;;0.10;0.10;;;;;;;26.55;53.21;97401.88;6152882;23;20013;-70
2021/08/01 11:05:35;;;;;;;0.73;0.20;;;;;;;26.52;53.42;97402.63;6127282;23;20020;-67
2021/08/01 11:08:00;;;;;;;0.15;0.15;;;;;;;26.49;53.41;97417.44;6153356;23;20092;-70
2021/08/01 11:10:26;;;;;;;0.75;0.32;;;;;;;26.44;53.50;97426.19;6152440;23;20037;-70
2021/08/01 11:12:52;;;;;;;3.00;0.30;;;;;;;26.33;53.75;97422.38;6152798;23;20018;-72
2021/08/01 11:15:18;;;;;;;0.25;0.17;;;;;;;26.17;54.03;97436.53;6153172;23;20060;-67
2021/08/01 11:17:46;;;;;;;0.70;0.30;;;;;;;25.96;54.58;97422.84;6153253;23;20048;-73
2021/08/01 11:20:23;;;;;;;0.10;0.10;;;;;;;25.67;55.33;97420.25;6153679;23;20014;-72
2021/08/01 11:22:53;;;;;;;0.30;0.30;;;;;;;25.39;55.84;97431.69;6153363;23;20033;-75
2021/08/01 11:25:26;;;;;;;0.20;0.20;;;;;;;25.14;56.00;97442.31;6153118;23;20083;-70
2021/08/01 11:28:08;;;;;;;0.45;0.20;;;;;;;24.87;56.89;97452.47;6154481;23;20013;-72
2021/08/01 11:30:53;;;;;;;0.63;0.63;;;;;;;24.63;57.21;97448.66;6155028;23;20354;-72
2021/08/01 11:33:33;;;;;;;0.63;0.52;;;;;;;24.41;57.47;97467.72;6144629;23;20074;-72
2021/08/01 11:36:13;;;;;;;0.45;0.45;;;;;;;24.24;57.27;97470.84;6154459;23;20273;-72
2021/08/01 11:38:48;;;;;;;0.35;0.35;;;;;;;23.88;57.69;97507.09;6153631;23;20016;-72
2021/08/01 11:41:25;;;;;;;0.20;0.20;;;;;;;23.41;58.41;97500.03;6154570;23;20013;-67
2021/08/01 11:44:05;;;;;;;1.00;0.80;;;;;;;22.72;59.70;97516.53;6154329;23;20096;-71
2021/08/01 11:46:54;;;;;;;0.30;0.30;;;;;;;22.00;61.31;97538.28;6155585;23;20462;-68
2021/08/01 11:49:24;;;;;;;0.10;0.10;;;;;;;21.48;62.31;97534.69;6156066;23;20035;-71
2021/08/01 11:51:54;;;;;;;0.30;0.30;;;;;;;21.26;62.47;97563.72;6155681;23;20088;-66
2021/08/01 11:54:43;;;;;;;0.47;0.47;;;;;;;21.39;61.84;97555.44;6156313;23;20465;-76
2021/08/01 11:57:12;;;;;;;0.75;0.75;;;;;;;21.68;60.47;97538.66;6155933;23;20016;-69
2021/08/01 11:59:39;;;;;;;0.40;0.40;;;;;;;22.16;59.48;97541.28;6156034;23;20060;-70
2021/08/01 12:02:09;;;;;;;0.47;0.47;;;;;;;22.64;57.91;97539.03;6153119;23;20017;-69
2021/08/01 12:04:36;;;;;;;0.10;0.10;;;;;;;23.01;56.77;97528.72;6155572;23;20131;-71
2021/08/01 12:07:02;;;;;;;0.98;0.30;;;;;;;23.31;56.32;97527.72;6155299;23;20017;-68
2021/08/01 12:09:37;;;;;;;0.40;0.40;;;;;;;23.55;55.69;97518.47;6129479;23;20148;-70
2021/08/01 12:12:05;;;;;;;0.10;0.10;;;;;;;23.74;55.34;97513.03;6154162;23;20010;-70
2021/08/01 12:14:33;;;;;;;0.60;0.47;;;;;;;23.90;55.29;97518.75;6155067;23;20140;-72
2021/08/01 12:17:10;;;;;;;0.10;0.10;;;;;;;23.95;55.09;97507.31;6156310;23;20014;-69
2021/08/01 12:19:39;;;;;;;0.50;0.50;;;;;;;23.89;55.14;97510.72;6155904;23;20320;-73
2021/08/01 12:22:22;;;;;;;2.70;0.50;;;;;;;23.71;55.63;97505.34;6155431;23;20013;-71
2021/08/01 12:24:55;;;;;;;0.68;0.40;;;;;;;23.53;56.41;97509.59;6155631;23;20005;-68
2021/08/01 12:27:32;;;;;;;0.10;0.10;;;;;;;23.38;56.71;97505.50;6155620;23;20009;-68
2021/08/01 12:30:04;;;;;;;0.47;0.47;;;;;;;23.24;56.78;97505.88;6149905;23;20013;-69
2021/08/01 12:32:33;;;;;;;0.52;0.52;;;;;;;23.13;56.91;97511.16;6155267;23;20013;-68
2021/08/01 12:35:07;;;;;;;1.08;0.47;;;;;;;23.00;57.47;97503.88;6156162;23;20020;-75
2021/08/01 12:37:41;;;;;;;1.33;0.68;;;;;;;22.90;57.75;97505.16;6156408;23;20374;-77
2021/08/01 12:40:07;;;;;;;3.93;1.10;;;;;;;22.83;57.73;97514.09;6170489;23;20010;-71
2021/08/01 12:42:33;;;;;;;0.93;0.25;;;;;;;22.77;57.58;97521.09;6164163;23;20240;-69
2021/08/01 12:45:04;;;;;;;0.30;0.30;;;;;;;22.73;57.94;97518.19;6155779;23;20010;-71
2021/08/01 12:47:32;;;;;;;0.30;0.30;;;;;;;22.72;57.81;97524.13;6155675;23;20021;-68